Barfleur — FNIE — position and weather

sailwx.info

Track history (hours):
 
Tides and Currents Weather Stations Pressure Air Temp Water Temp Dewpoint Dewpoint Depression Visibility Wind Speed Wind Dir Waves Ship Positions

Barfleur

Operator: Brittany Ferries

Last reported at 2019-Aug-22 07:47 UTC. Time now 2019-Aug-22 08:57 UTC.
Position N 49°53' W 001°44'.

Length 158 m; draft 5 m.

Type: Ship. MMSI: 227289000.

Date/timePositionNaut miles runAvg speedWind from/ knotsBaromVisibWave heightAir tempDewpointWater temp
2019-Aug-22 07:47N 49°53' W 001°44'516.8
2019-Aug-22 07:30N 49°48' W 001°42'816.4
2019-Aug-22 07:00N 49°40' W 001°39'2 1.2
2019-Aug-22 05:09N 49°39' W 001°37'0 0.0
2019-Aug-22 05:00N 49°39' W 001°37'4 8.5
2019-Aug-22 04:31N 49°43' W 001°40'3 6.2
2019-Aug-22 04:01N 49°45' W 001°36'1 1.5
2019-Aug-22 03:30N 49°45' W 001°35'1 1.0
2019-Aug-22 03:01N 49°44' W 001°34'0 0.3
2019-Aug-22 02:30N 49°44' W 001°34'0 0.3
2019-Aug-22 02:01N 49°44' W 001°34'1 1.2
2019-Aug-22 01:31N 49°44' W 001°35'612.6
2019-Aug-22 01:01N 49°51' W 001°37'713.6
2019-Aug-22 00:31N 49°57' W 001°39'713.5
2019-Aug-22 00:00N 50°04' W 001°42'713.2
2019-Aug-21 23:31N 50°10' W 001°44'713.2
2019-Aug-21 23:01N 50°17' W 001°46'713.2
2019-Aug-21 22:30N 50°23' W 001°48'613.1
2019-Aug-21 22:00N 50°30' W 001°50'612.7
2019-Aug-21 21:31N 50°36' W 001°52'5 9.9
2019-Aug-21 21:00N 50°40' W 001°56'3 5.7
2019-Aug-21 20:28N 50°42' W 001°59'0 0.0
2019-Aug-21 19:55N 50°42' W 001°59'0 0.0
2019-Aug-21 19:22N 50°42' W 001°59'0 0.0
2019-Aug-21 18:55N 50°42' W 001°59'0 0.1
2019-Aug-21 18:28N 50°42' W 001°59'3 6.4
2019-Aug-21 18:00N 50°40' W 001°56'715.0
2019-Aug-21 17:30N 50°34' W 001°51'1316.6
2019-Aug-21 16:42N 50°20' W 001°48'1016.9
2019-Aug-21 16:06N 50°10' W 001°45'1816.8
2019-Aug-21 15:03N 49°53' W 001°39'116.8
2019-Aug-21 15:00N 49°52' W 001°39'916.7
2019-Aug-21 14:28N 49°44' W 001°36'5 6.2
2019-Aug-21 13:42N 49°39' W 001°37'0 0.0
2019-Aug-21 13:31N 49°39' W 001°37'0 0.0
2019-Aug-21 13:00N 49°39' W 001°37'0 0.0
2019-Aug-21 12:30N 49°39' W 001°37'0 0.0
2019-Aug-21 12:00N 49°39' W 001°37'510.4
2019-Aug-21 11:30N 49°44' W 001°36'917.1
2019-Aug-21 11:00N 49°53' W 001°37'917.1
2019-Aug-21 10:30N 50°01' W 001°40'917.1
2019-Aug-21 10:00N 50°09' W 001°44'816.9
2019-Aug-21 09:30N 50°17' W 001°47'1116.7
2019-Aug-21 08:52N 50°28' W 001°49'616.7
2019-Aug-21 08:30N 50°34' W 001°51'714.7
2019-Aug-21 08:00N 50°40' W 001°56'3 5.8
2019-Aug-21 07:30N 50°42' W 001°59'0 0.0
2019-Aug-21 07:00N 50°42' W 001°59'0 0.0
2019-Aug-21 06:28N 50°42' W 001°59'0 0.0
2019-Aug-21 05:59N 50°42' W 001°59'3 5.5
2019-Aug-21 05:30N 50°41' W 001°56'611.3
2019-Aug-21 05:01N 50°36' W 001°53'814.5
2019-Aug-21 04:29N 50°28' W 001°50'1513.5
2019-Aug-21 03:21N 50°13' W 001°44'513.1
2019-Aug-21 03:00N 50°09' W 001°42'712.8
2019-Aug-21 02:26N 50°02' W 001°41'613.4
2019-Aug-21 02:00N 49°56' W 001°39'713.3
2019-Aug-21 01:30N 49°50' W 001°36'713.1
2019-Aug-21 01:00N 49°43' W 001°34'1 2.1
2019-Aug-21 00:30N 49°42' W 001°35'1 1.5
2019-Aug-21 00:00N 49°43' W 001°36'1 2.0
2019-Aug-20 23:30N 49°43' W 001°37'1 2.3
2019-Aug-20 23:00N 49°43' W 001°39'1 2.6
2019-Aug-20 22:30N 49°43' W 001°41'1 2.8
2019-Aug-20 22:00N 49°43' W 001°43'1 2.2
2019-Aug-20 21:30N 49°43' W 001°45'2 3.9
2019-Aug-20 21:00N 49°43' W 001°42'4 8.7
2019-Aug-20 20:30N 49°40' W 001°37'1 2.0
2019-Aug-20 20:00N 49°39' W 001°37'0 0.0
2019-Aug-20 19:30N 49°39' W 001°37'0 0.0
2019-Aug-20 19:00N 49°39' W 001°37'0 0.0
2019-Aug-20 18:30N 49°39' W 001°37'0 0.0
2019-Aug-20 18:00N 49°39' W 001°37'0 0.0
2019-Aug-20 17:30N 49°39' W 001°37'1 2.7
2019-Aug-20 17:00N 49°40' W 001°38'714.9
2019-Aug-20 16:30N 49°47' W 001°42'816.4
2019-Aug-20 16:00N 49°55' W 001°43'715.0
2019-Aug-20 15:31N 50°03' W 001°45'715.0
2019-Aug-20 15:01N 50°10' W 001°47'816.8
2019-Aug-20 14:30N 50°18' W 001°48'917.0
2019-Aug-20 14:00N 50°27' W 001°51'817.0
2019-Aug-20 13:30N 50°35' W 001°52'713.9
2019-Aug-20 13:01N 50°41' W 001°57'2 3.7
2019-Aug-20 12:30N 50°42' W 001°59'0 0.0
2019-Aug-20 12:00N 50°42' W 001°59'0 0.0
2019-Aug-20 11:30N 50°42' W 001°59'0 0.5
2019-Aug-20 11:00N 50°42' W 001°59'5 9.9
2019-Aug-20 10:30N 50°38' W 001°55'816.9
2019-Aug-20 10:00N 50°30' W 001°50'1916.8
2019-Aug-20 08:53N 50°12' W 001°47'817.2
2019-Aug-20 08:24N 50°03' W 001°46'716.9
2019-Aug-20 08:00N 49°57' W 001°45'816.6
2019-Aug-20 07:30N 49°49' W 001°42'816.0
2019-Aug-20 07:01N 49°41' W 001°39'3 5.2
2019-Aug-20 06:31N 49°39' W 001°37'0 0.0
2019-Aug-20 06:00N 49°39' W 001°37'0 0.0
2019-Aug-20 05:30N 49°39' W 001°37'0 0.0
2019-Aug-20 05:00N 49°39' W 001°37'3 5.7
2019-Aug-20 04:30N 49°41' W 001°40'1 1.4
2019-Aug-20 04:00N 49°42' W 001°40'1 1.4
2019-Aug-20 03:30N 49°42' W 001°39'1 1.8
2019-Aug-20 03:00N 49°42' W 001°38'1 1.7
2019-Aug-20 02:30N 49°43' W 001°36'1 1.3
2019-Aug-20 02:00N 49°43' W 001°36'0 1.0
2019-Aug-20 01:30N 49°44' W 001°35'1 1.2
2019-Aug-20 01:01N 49°44' W 001°35'713.1
2019-Aug-20 00:30N 49°50' W 001°38'714.8
2019-Aug-20 00:00N 49°57' W 001°42'714.3
2019-Aug-19 23:30N 50°04' W 001°46'713.7
2019-Aug-19 23:01N 50°11' W 001°47'1513.7
2019-Aug-19 21:57N 50°25' W 001°52'613.2
2019-Aug-19 21:30N 50°31' W 001°53'612.4
2019-Aug-19 21:00N 50°37' W 001°54'510.3
2019-Aug-19 20:30N 50°42' W 001°57'1 2.9
2019-Aug-19 20:00N 50°42' W 001°59'0 0.0
2019-Aug-19 19:30N 50°42' W 001°59'0 0.0
2019-Aug-19 19:00N 50°42' W 001°59'0 0.0
2019-Aug-19 18:30N 50°42' W 001°59'0 0.4
2019-Aug-19 18:00N 50°42' W 001°59'612.0
2019-Aug-19 17:30N 50°37' W 001°54'714.3
2019-Aug-19 17:00N 50°30' W 001°51'1716.2
2019-Aug-19 15:58N 50°14' W 001°48'816.5
2019-Aug-19 15:31N 50°06' W 001°47'917.0
2019-Aug-19 15:00N 49°58' W 001°43'917.3
2019-Aug-19 14:30N 49°50' W 001°39'817.0
2019-Aug-19 14:01N 49°42' W 001°36'1 0.6
2019-Aug-19 11:37N 49°40' W 001°36'1517.0
2019-Aug-19 10:43N 49°55' W 001°40'416.6
2019-Aug-19 10:31N 49°59' W 001°41'816.3
2019-Aug-19 10:00N 50°07' W 001°44'816.3
2019-Aug-19 09:30N 50°15' W 001°46'1016.1
2019-Aug-19 08:51N 50°25' W 001°49'616.0
2019-Aug-19 08:30N 50°31' W 001°51'815.7
2019-Aug-19 08:00N 50°38' W 001°54'510.2
2019-Aug-19 07:30N 50°42' W 001°59'1 0.9
2019-Aug-19 06:55N 50°42' W 001°59'0 0.0
2019-Aug-19 06:25N 50°42' W 001°59'0 0.0
2019-Aug-19 05:57N 50°42' W 001°59'1 1.8
2019-Aug-19 05:30N 50°42' W 001°58'510.5
2019-Aug-19 05:01N 50°38' W 001°54'714.5
2019-Aug-19 04:30N 50°31' W 001°51'2112.7
2019-Aug-19 02:50N 50°10' W 001°44'412.4
2019-Aug-19 02:30N 50°06' W 001°43'712.6
2019-Aug-19 01:58N 49°59' W 001°41'613.1
2019-Aug-19 01:30N 49°53' W 001°39'612.4
2019-Aug-19 01:00N 49°48' W 001°35'510.5
2019-Aug-19 00:30N 49°43' W 001°33'1 1.8
2019-Aug-19 00:00N 49°43' W 001°34'1 2.0
2019-Aug-18 23:30N 49°43' W 001°36'1 2.7
2019-Aug-18 23:00N 49°43' W 001°38'2 3.1
2019-Aug-18 22:30N 49°43' W 001°40'2 3.3
2019-Aug-18 22:00N 49°43' W 001°43'2 3.0
2019-Aug-18 21:30N 49°43' W 001°45'1 1.5
2019-Aug-18 21:00N 49°43' W 001°44'3 6.4
2019-Aug-18 20:30N 49°41' W 001°40'3 6.2
2019-Aug-18 19:59N 49°39' W 001°37'0 0.0
2019-Aug-18 19:28N 49°39' W 001°37'0 0.0
2019-Aug-18 18:58N 49°39' W 001°37'0 0.0
2019-Aug-18 18:28N 49°39' W 001°37'0 0.0
2019-Aug-18 17:58N 49°39' W 001°37'3 7.0
2019-Aug-18 17:30N 49°41' W 001°40'816.0
2019-Aug-18 17:00N 49°49' W 001°42'815.8
2019-Aug-18 16:30N 49°57' W 001°45'815.4
2019-Aug-18 16:00N 50°04' W 001°49'816.0
2019-Aug-18 15:31N 50°12' W 001°50'1716.5
2019-Aug-18 14:28N 50°29' W 001°52'919.6
2019-Aug-18 14:00N 50°38' W 001°54'4 8.5
2019-Aug-18 13:30N 50°42' W 001°57'1 2.6
2019-Aug-18 12:59N 50°42' W 001°59'0 0.0
2019-Aug-18 12:29N 50°42' W 001°59'0 0.0
2019-Aug-18 11:59N 50°42' W 001°59'0 0.0
2019-Aug-18 11:29N 50°42' W 001°59'2 4.3
2019-Aug-18 11:00N 50°41' W 001°57'714.2
2019-Aug-18 10:30N 50°35' W 001°52'916.3
2019-Aug-18 09:57N 50°26' W 001°49'1415.7
2019-Aug-18 09:03N 50°12' W 001°44'215.6
2019-Aug-18 08:56N 50°10' W 001°44'715.6
2019-Aug-18 08:30N 50°04' W 001°41'816.3
2019-Aug-18 08:00N 49°56' W 001°41'1615.6
2019-Aug-18 07:01N 49°40' W 001°38'2 3.2
2019-Aug-18 06:29N 49°39' W 001°37'0 0.0
2019-Aug-18 06:00N 49°39' W 001°37'0 0.0
2019-Aug-18 05:30N 49°39' W 001°37'0 0.0
2019-Aug-18 05:00N 49°39' W 001°37'4 7.4
2019-Aug-18 04:31N 49°42' W 001°40'4 8.5
2019-Aug-18 04:01N 49°45' W 001°45'1 2.5
2019-Aug-18 03:30N 49°45' W 001°43'2 3.1
2019-Aug-18 03:01N 49°44' W 001°40'2 4.2
2019-Aug-18 02:31N 49°44' W 001°37'1 2.6
2019-Aug-18 02:01N 49°44' W 001°35'1 2.2
2019-Aug-18 01:31N 49°44' W 001°34'1 1.8
2019-Aug-18 01:01N 49°44' W 001°32'612.6
2019-Aug-18 00:30N 49°50' W 001°36'713.8
2019-Aug-18 00:01N 49°56' W 001°40'713.6
2019-Aug-17 23:30N 50°02' W 001°44'613.0
2019-Aug-17 23:01N 50°09' W 001°45'713.1
2019-Aug-17 22:30N 50°15' W 001°47'713.0
2019-Aug-17 21:56N 50°23' W 001°48'612.9
2019-Aug-17 21:28N 50°29' W 001°50'612.7
2019-Aug-17 21:01N 50°34' W 001°52'510.7
2019-Aug-17 20:31N 50°39' W 001°55'4 8.0
2019-Aug-17 20:00N 50°42' W 001°59'0 0.0
2019-Aug-17 19:30N 50°42' W 001°59'0 0.0
2019-Aug-17 19:00N 50°42' W 001°59'0 0.0
2019-Aug-17 18:30N 50°42' W 001°59'1212.4
2019-Aug-17 17:30N 50°31' W 001°52'3 5.9
2019-Aug-17 17:00N 50°34' W 001°52'1116.1
2019-Aug-17 16:21N 50°23' W 001°52'1016.6
2019-Aug-17 15:44N 50°13' W 001°49'416.1
2019-Aug-17 15:31N 50°10' W 001°49'815.5
2019-Aug-17 15:00N 50°02' W 001°49'816.4
2019-Aug-17 14:30N 49°54' W 001°46'917.3
2019-Aug-17 14:00N 49°46' W 001°41'714.7
2019-Aug-17 13:30N 49°39' W 001°37'0 0.7
2019-Aug-17 13:00N 49°39' W 001°37'0 0.0
2019-Aug-17 12:31N 49°39' W 001°37'0 0.0
2019-Aug-17 12:00N 49°39' W 001°37'0 0.0
2019-Aug-17 11:30N 49°39' W 001°37'0 0.0
2019-Aug-17 11:00N 49°39' W 001°37'0 0.0
2019-Aug-17 10:30N 49°39' W 001°37'0 0.0
2019-Aug-17 10:00N 49°39' W 001°37'0 0.0
2019-Aug-17 09:30N 49°39' W 001°37'0 0.0
2019-Aug-17 09:00N 49°39' W 001°37'0 0.0
2019-Aug-17 08:30N 49°39' W 001°37'0 0.0
2019-Aug-17 08:00N 49°39' W 001°37'0 0.0
2019-Aug-17 07:30N 49°39' W 001°37'0 0.0
2019-Aug-17 07:00N 49°39' W 001°37'0 0.0
2019-Aug-17 06:30N 49°39' W 001°37'0 0.0
2019-Aug-17 06:00N 49°39' W 001°37'0 0.0
2019-Aug-17 05:30N 49°39' W 001°37'0 0.0
2019-Aug-17 05:00N 49°39' W 001°37'4 8.2
2019-Aug-17 04:30N 49°42' W 001°40'2 4.2
2019-Aug-17 04:00N 49°44' W 001°38'1 1.2
2019-Aug-17 03:30N 49°44' W 001°38'1 2.0
2019-Aug-17 03:00N 49°44' W 001°36'2 3.2
2019-Aug-17 02:30N 49°42' W 001°36'1 1.1
2019-Aug-17 02:00N 49°42' W 001°35'0 0.9
2019-Aug-17 01:30N 49°43' W 001°35'1 1.3
2019-Aug-17 01:00N 49°43' W 001°34'714.0
2019-Aug-17 00:30N 49°49' W 001°39'815.1
2019-Aug-17 00:00N 49°56' W 001°45'714.4
2019-Aug-16 23:30N 50°03' W 001°47'714.2
2019-Aug-16 23:00N 50°10' W 001°47'1014.0
2019-Aug-16 22:16N 50°21' W 001°49'413.8
2019-Aug-16 21:57N 50°25' W 001°50'613.4
2019-Aug-16 21:30N 50°31' W 001°52'713.1
2019-Aug-16 21:00N 50°37' W 001°54'611.8
2019-Aug-16 20:31N 50°42' W 001°58'1 1.5
2019-Aug-16 19:58N 50°42' W 001°59'0 0.0
2019-Aug-16 19:28N 50°42' W 001°59'0 0.0
2019-Aug-16 18:55N 50°42' W 001°59'0 0.0
2019-Aug-16 18:30N 50°42' W 001°59'3 5.5
2019-Aug-16 18:00N 50°41' W 001°56'714.8
2019-Aug-16 17:31N 50°34' W 001°51'815.8
2019-Aug-16 17:00N 50°26' W 001°48'915.9
2019-Aug-16 16:26N 50°17' W 001°47'716.1
2019-Aug-16 16:00N 50°10' W 001°46'815.7
2019-Aug-16 15:31N 50°02' W 001°45'815.8
2019-Aug-16 15:00N 49°55' W 001°44'816.3
2019-Aug-16 14:31N 49°47' W 001°41'714.4
2019-Aug-16 14:00N 49°40' W 001°37'1 2.2
2019-Aug-16 13:30N 49°39' W 001°37'0 0.0
2019-Aug-16 12:59N 49°39' W 001°37'0 0.0
2019-Aug-16 12:29N 49°39' W 001°37'0 0.9
2019-Aug-16 12:01N 49°39' W 001°37'714.1
2019-Aug-16 11:30N 49°46' W 001°35'815.7
2019-Aug-16 11:00N 49°54' W 001°36'815.5
2019-Aug-16 10:30N 50°02' W 001°38'816.2
2019-Aug-16 10:00N 50°09' W 001°44'815.7
2019-Aug-16 09:30N 50°16' W 001°47'915.5
2019-Aug-16 08:56N 50°25' W 001°49'715.1
2019-Aug-16 08:31N 50°31' W 001°51'714.4
2019-Aug-16 08:01N 50°38' W 001°54'510.1
2019-Aug-16 07:31N 50°42' W 001°59'0 0.2
2019-Aug-16 06:58N 50°42' W 001°59'0 0.0
2019-Aug-16 06:28N 50°42' W 001°59'0 0.0
2019-Aug-16 06:00N 50°42' W 001°59'0 0.9
2019-Aug-16 05:30N 50°42' W 001°59'510.6
2019-Aug-16 05:01N 50°38' W 001°54'611.7
2019-Aug-16 04:30N 50°32' W 001°53'1013.0
2019-Aug-16 03:44N 50°23' W 001°48'313.5
2019-Aug-16 03:30N 50°19' W 001°47'713.7
2019-Aug-16 03:00N 50°13' W 001°45'913.8
2019-Aug-16 02:20N 50°04' W 001°41'813.7
2019-Aug-16 01:43N 49°56' W 001°37'12 4.2
2019-Aug-15 22:45N 49°44' W 001°33'5 0.9
2019-Aug-15 17:30N 49°40' W 001°37'714.1
2019-Aug-15 16:59N 49°47' W 001°40'1615.6
2019-Aug-15 15:59N 50°02' W 001°44'2715.2
2019-Aug-15 14:12N 50°29' W 001°50'315.6
2019-Aug-15 14:00N 50°32' W 001°51'816.0
2019-Aug-15 13:30N 50°40' W 001°55'4 7.6
2019-Aug-15 13:00N 50°42' W 001°59'0 0.0
2019-Aug-15 12:30N 50°42' W 001°59'0 0.0
2019-Aug-15 12:00N 50°42' W 001°59'0 0.7
2019-Aug-15 11:30N 50°42' W 001°59'510.1
2019-Aug-15 11:01N 50°38' W 001°54'815.3
2019-Aug-15 10:31N 50°31' W 001°52'815.2
2019-Aug-15 09:58N 50°23' W 001°50'1514.8
2019-Aug-15 08:59N 50°08' W 001°46'814.6
2019-Aug-15 08:27N 50°01' W 001°44'614.4
2019-Aug-15 08:01N 49°54' W 001°42'714.1
2019-Aug-15 07:30N 49°47' W 001°41'714.2
2019-Aug-15 07:00N 49°40' W 001°39'3 0.8
2019-Aug-15 03:38N 49°43' W 001°39'37 8.1
2019-Aug-14 23:05N 50°20' W 001°44'112.7
2019-Aug-14 23:00N 50°21' W 001°45'612.7
2019-Aug-14 22:30N 50°27' W 001°48'611.7
2019-Aug-14 22:00N 50°32' W 001°51'5 9.9
2019-Aug-14 21:30N 50°37' W 001°53'510.9
2019-Aug-14 21:00N 50°42' W 001°57'2 2.8
2019-Aug-14 20:25N 50°42' W 001°59'0 0.0
2019-Aug-14 19:56N 50°42' W 001°59'0 0.0
2019-Aug-14 19:30N 50°42' W 001°59'0 0.1
2019-Aug-14 19:01N 50°42' W 001°59'3 5.9
2019-Aug-14 18:30N 50°40' W 001°56'815.2
2019-Aug-14 18:00N 50°34' W 001°51'814.9
2019-Aug-14 17:29N 50°26' W 001°47'815.8
2019-Aug-14 17:00N 50°18' W 001°47'815.9
2019-Aug-14 16:30N 50°10' W 001°47'815.9
2019-Aug-14 15:59N 50°02' W 001°46'1715.9
2019-Aug-14 14:53N 49°45' W 001°41'713.9
2019-Aug-14 14:24N 49°39' W 001°37'1 0.3
2019-Aug-14 12:10N 49°40' W 001°37'212.4
2019-Aug-14 12:00N 49°41' W 001°39'714.7
2019-Aug-14 11:31N 49°48' W 001°42'1515.1
2019-Aug-14 10:30N 50°03' W 001°45'915.3
2019-Aug-14 09:54N 50°12' W 001°47'915.4
2019-Aug-14 09:19N 50°21' W 001°49'615.4
2019-Aug-14 08:56N 50°27' W 001°50'715.3
2019-Aug-14 08:30N 50°33' W 001°52'714.6
2019-Aug-14 08:00N 50°40' W 001°56'3 6.3
2019-Aug-14 07:28N 50°42' W 001°59'0 0.0
2019-Aug-14 06:58N 50°42' W 001°59'0 0.0
2019-Aug-14 06:30N 50°42' W 001°59'0 0.0
2019-Aug-14 06:00N 50°42' W 001°59'0 0.1
2019-Aug-14 05:30N 50°42' W 001°60'4 8.9
2019-Aug-14 05:00N 50°39' W 001°55'612.0
2019-Aug-14 04:30N 50°34' W 001°50'712.8
2019-Aug-14 04:00N 50°28' W 001°47'4012.9
2019-Aug-14 00:54N 49°48' W 001°40'3 2.9
2019-Aug-13 23:46N 49°46' W 001°36'1 1.5
2019-Aug-13 22:51N 49°46' W 001°34'0 1.0
2019-Aug-13 22:30N 49°46' W 001°33'0 0.9
2019-Aug-13 21:58N 49°46' W 001°33'1 1.4
2019-Aug-13 21:30N 49°45' W 001°33'510.1
2019-Aug-13 21:00N 49°40' W 001°36'2 3.0
2019-Aug-13 20:28N 49°39' W 001°37'0 0.0
2019-Aug-13 19:59N 49°39' W 001°37'0 0.0
2019-Aug-13 19:30N 49°39' W 001°37'0 0.0
2019-Aug-13 19:00N 49°39' W 001°37'0 0.0
2019-Aug-13 18:13N 49°39' W 001°37'0 0.0
2019-Aug-13 18:00N 49°39' W 001°37'0 0.0
2019-Aug-13 17:30N 49°39' W 001°37'4 7.5
2019-Aug-13 17:00N 49°43' W 001°35'815.6
2019-Aug-13 16:30N 49°50' W 001°39'816.5
2019-Aug-13 16:00N 49°58' W 001°43'916.0
2019-Aug-13 15:28N 50°06' W 001°46'2515.7
2019-Aug-13 13:53N 50°31' W 001°51'616.3
2019-Aug-13 13:31N 50°37' W 001°54'612.6
2019-Aug-13 13:01N 50°42' W 001°58'1 1.6
2019-Aug-13 12:30N 50°42' W 001°59'0 0.0
2019-Aug-13 12:00N 50°42' W 001°59'0 0.0
2019-Aug-13 11:30N 50°42' W 001°59'2 4.6
2019-Aug-13 11:00N 50°41' W 001°57'713.8
2019-Aug-13 10:31N 50°35' W 001°53'815.9
2019-Aug-13 10:00N 50°26' W 001°51'3115.9
2019-Aug-13 08:01N 49°55' W 001°44'015.2
2019-Aug-13 08:01N 49°55' W 001°44'815.2
2019-Aug-13 07:31N 49°48' W 001°41'913.8
2019-Aug-13 06:51N 49°39' W 001°37'6 1.5
2019-Aug-13 02:55N 49°43' W 001°43'0 1.2
2019-Aug-13 02:30N 49°44' W 001°44'2 2.0
2019-Aug-13 01:25N 49°46' W 001°45'612.0
2019-Aug-13 00:55N 49°52' W 001°47'3613.3
2019-Aug-12 22:13N 50°27' W 001°51'313.6
2019-Aug-12 22:00N 50°30' W 001°51'611.5
2019-Aug-12 21:30N 50°36' W 001°53'611.8
2019-Aug-12 21:01N 50°41' W 001°57'2 3.6
2019-Aug-12 20:29N 50°42' W 001°59'0 0.0
2019-Aug-12 19:59N 50°42' W 001°59'0 0.0
2019-Aug-12 19:29N 50°42' W 001°59'0 0.0
2019-Aug-12 19:00N 50°42' W 001°59'2 3.3
2019-Aug-12 18:30N 50°42' W 001°57'611.6
2019-Aug-12 18:00N 50°37' W 001°53'815.3
2019-Aug-12 17:29N 50°29' W 001°50'715.5
2019-Aug-12 17:00N 50°21' W 001°49'3315.5
2019-Aug-12 14:54N 49°49' W 001°41'915.2
2019-Aug-12 14:19N 49°41' W 001°39'2 0.7
2019-Aug-12 11:55N 49°40' W 001°37'1514.5
2019-Aug-12 10:54N 49°54' W 001°45'3516.3
2019-Aug-12 08:43N 50°29' W 001°51'416.5
2019-Aug-12 08:30N 50°32' W 001°52'816.0
2019-Aug-12 08:00N 50°40' W 001°56'  
Track history (hours):
 
Tides and Currents Weather Stations Pressure Air Temp Water Temp Dewpoint Dewpoint Depression Visibility Wind Speed Wind Dir Waves Ship Positions

Barfleur

Operator: Brittany Ferries

Last reported at 2019-Aug-22 07:47 UTC. Time now 2019-Aug-22 08:57 UTC.
Position N 49°53' W 001°44'.

Length 158 m; draft 5 m.

Type: Ship. MMSI: 227289000.

Date/timePositionNaut miles runAvg speedWind from/ knotsBaromVisibWave heightAir tempDewpointWater temp
2019-Aug-22 07:47N 49°53' W 001°44'516.8
2019-Aug-22 07:30N 49°48' W 001°42'816.4
2019-Aug-22 07:00N 49°40' W 001°39'2 1.2
2019-Aug-22 05:09N 49°39' W 001°37'0 0.0
2019-Aug-22 05:00N 49°39' W 001°37'4 8.5
2019-Aug-22 04:31N 49°43' W 001°40'3 6.2
2019-Aug-22 04:01N 49°45' W 001°36'1 1.5
2019-Aug-22 03:30N 49°45' W 001°35'1 1.0
2019-Aug-22 03:01N 49°44' W 001°34'0 0.3
2019-Aug-22 02:30N 49°44' W 001°34'0 0.3
2019-Aug-22 02:01N 49°44' W 001°34'1 1.2
2019-Aug-22 01:31N 49°44' W 001°35'612.6
2019-Aug-22 01:01N 49°51' W 001°37'713.6
2019-Aug-22 00:31N 49°57' W 001°39'713.5
2019-Aug-22 00:00N 50°04' W 001°42'713.2
2019-Aug-21 23:31N 50°10' W 001°44'713.2
2019-Aug-21 23:01N 50°17' W 001°46'713.2
2019-Aug-21 22:30N 50°23' W 001°48'613.1
2019-Aug-21 22:00N 50°30' W 001°50'612.7
2019-Aug-21 21:31N 50°36' W 001°52'5 9.9
2019-Aug-21 21:00N 50°40' W 001°56'3 5.7
2019-Aug-21 20:28N 50°42' W 001°59'0 0.0
2019-Aug-21 19:55N 50°42' W 001°59'0 0.0
2019-Aug-21 19:22N 50°42' W 001°59'0 0.0
2019-Aug-21 18:55N 50°42' W 001°59'0 0.1
2019-Aug-21 18:28N 50°42' W 001°59'3 6.4
2019-Aug-21 18:00N 50°40' W 001°56'715.0
2019-Aug-21 17:30N 50°34' W 001°51'1316.6
2019-Aug-21 16:42N 50°20' W 001°48'1016.9
2019-Aug-21 16:06N 50°10' W 001°45'1816.8
2019-Aug-21 15:03N 49°53' W 001°39'116.8
2019-Aug-21 15:00N 49°52' W 001°39'916.7
2019-Aug-21 14:28N 49°44' W 001°36'5 6.2
2019-Aug-21 13:42N 49°39' W 001°37'0 0.0
2019-Aug-21 13:31N 49°39' W 001°37'0 0.0
2019-Aug-21 13:00N 49°39' W 001°37'0 0.0
2019-Aug-21 12:30N 49°39' W 001°37'0 0.0
2019-Aug-21 12:00N 49°39' W 001°37'510.4
2019-Aug-21 11:30N 49°44' W 001°36'917.1
2019-Aug-21 11:00N 49°53' W 001°37'917.1
2019-Aug-21 10:30N 50°01' W 001°40'917.1
2019-Aug-21 10:00N 50°09' W 001°44'816.9
2019-Aug-21 09:30N 50°17' W 001°47'1116.7
2019-Aug-21 08:52N 50°28' W 001°49'616.7
2019-Aug-21 08:30N 50°34' W 001°51'714.7
2019-Aug-21 08:00N 50°40' W 001°56'3 5.8
2019-Aug-21 07:30N 50°42' W 001°59'0 0.0
2019-Aug-21 07:00N 50°42' W 001°59'0 0.0
2019-Aug-21 06:28N 50°42' W 001°59'0 0.0
2019-Aug-21 05:59N 50°42' W 001°59'3 5.5
2019-Aug-21 05:30N 50°41' W 001°56'611.3
2019-Aug-21 05:01N 50°36' W 001°53'814.5
2019-Aug-21 04:29N 50°28' W 001°50'1513.5
2019-Aug-21 03:21N 50°13' W 001°44'513.1
2019-Aug-21 03:00N 50°09' W 001°42'712.8
2019-Aug-21 02:26N 50°02' W 001°41'613.4
2019-Aug-21 02:00N 49°56' W 001°39'713.3
2019-Aug-21 01:30N 49°50' W 001°36'713.1
2019-Aug-21 01:00N 49°43' W 001°34'1 2.1
2019-Aug-21 00:30N 49°42' W 001°35'1 1.5
2019-Aug-21 00:00N 49°43' W 001°36'1 2.0
2019-Aug-20 23:30N 49°43' W 001°37'1 2.3
2019-Aug-20 23:00N 49°43' W 001°39'1 2.6
2019-Aug-20 22:30N 49°43' W 001°41'1 2.8
2019-Aug-20 22:00N 49°43' W 001°43'1 2.2
2019-Aug-20 21:30N 49°43' W 001°45'2 3.9
2019-Aug-20 21:00N 49°43' W 001°42'4 8.7
2019-Aug-20 20:30N 49°40' W 001°37'1 2.0
2019-Aug-20 20:00N 49°39' W 001°37'0 0.0
2019-Aug-20 19:30N 49°39' W 001°37'0 0.0
2019-Aug-20 19:00N 49°39' W 001°37'0 0.0
2019-Aug-20 18:30N 49°39' W 001°37'0 0.0
2019-Aug-20 18:00N 49°39' W 001°37'0 0.0
2019-Aug-20 17:30N 49°39' W 001°37'1 2.7
2019-Aug-20 17:00N 49°40' W 001°38'714.9
2019-Aug-20 16:30N 49°47' W 001°42'816.4
2019-Aug-20 16:00N 49°55' W 001°43'715.0
2019-Aug-20 15:31N 50°03' W 001°45'715.0
2019-Aug-20 15:01N 50°10' W 001°47'816.8
2019-Aug-20 14:30N 50°18' W 001°48'917.0
2019-Aug-20 14:00N 50°27' W 001°51'817.0
2019-Aug-20 13:30N 50°35' W 001°52'713.9
2019-Aug-20 13:01N 50°41' W 001°57'2 3.7
2019-Aug-20 12:30N 50°42' W 001°59'0 0.0
2019-Aug-20 12:00N 50°42' W 001°59'0 0.0
2019-Aug-20 11:30N 50°42' W 001°59'0 0.5
2019-Aug-20 11:00N 50°42' W 001°59'5 9.9
2019-Aug-20 10:30N 50°38' W 001°55'816.9
2019-Aug-20 10:00N 50°30' W 001°50'1916.8
2019-Aug-20 08:53N 50°12' W 001°47'817.2
2019-Aug-20 08:24N 50°03' W 001°46'716.9
2019-Aug-20 08:00N 49°57' W 001°45'816.6
2019-Aug-20 07:30N 49°49' W 001°42'816.0
2019-Aug-20 07:01N 49°41' W 001°39'3 5.2
2019-Aug-20 06:31N 49°39' W 001°37'0 0.0
2019-Aug-20 06:00N 49°39' W 001°37'0 0.0
2019-Aug-20 05:30N 49°39' W 001°37'0 0.0
2019-Aug-20 05:00N 49°39' W 001°37'3 5.7
2019-Aug-20 04:30N 49°41' W 001°40'1 1.4
2019-Aug-20 04:00N 49°42' W 001°40'1 1.4
2019-Aug-20 03:30N 49°42' W 001°39'1 1.8
2019-Aug-20 03:00N 49°42' W 001°38'1 1.7
2019-Aug-20 02:30N 49°43' W 001°36'1 1.3
2019-Aug-20 02:00N 49°43' W 001°36'0 1.0
2019-Aug-20 01:30N 49°44' W 001°35'1 1.2
2019-Aug-20 01:01N 49°44' W 001°35'713.1
2019-Aug-20 00:30N 49°50' W 001°38'714.8
2019-Aug-20 00:00N 49°57' W 001°42'714.3
2019-Aug-19 23:30N 50°04' W 001°46'713.7
2019-Aug-19 23:01N 50°11' W 001°47'1513.7
2019-Aug-19 21:57N 50°25' W 001°52'613.2
2019-Aug-19 21:30N 50°31' W 001°53'612.4
2019-Aug-19 21:00N 50°37' W 001°54'510.3
2019-Aug-19 20:30N 50°42' W 001°57'1 2.9
2019-Aug-19 20:00N 50°42' W 001°59'0 0.0
2019-Aug-19 19:30N 50°42' W 001°59'0 0.0
2019-Aug-19 19:00N 50°42' W 001°59'0 0.0
2019-Aug-19 18:30N 50°42' W 001°59'0 0.4
2019-Aug-19 18:00N 50°42' W 001°59'612.0
2019-Aug-19 17:30N 50°37' W 001°54'714.3
2019-Aug-19 17:00N 50°30' W 001°51'1716.2
2019-Aug-19 15:58N 50°14' W 001°48'816.5
2019-Aug-19 15:31N 50°06' W 001°47'917.0
2019-Aug-19 15:00N 49°58' W 001°43'917.3
2019-Aug-19 14:30N 49°50' W 001°39'817.0
2019-Aug-19 14:01N 49°42' W 001°36'1 0.6
2019-Aug-19 11:37N 49°40' W 001°36'1517.0
2019-Aug-19 10:43N 49°55' W 001°40'416.6
2019-Aug-19 10:31N 49°59' W 001°41'816.3
2019-Aug-19 10:00N 50°07' W 001°44'816.3
2019-Aug-19 09:30N 50°15' W 001°46'1016.1
2019-Aug-19 08:51N 50°25' W 001°49'616.0
2019-Aug-19 08:30N 50°31' W 001°51'815.7
2019-Aug-19 08:00N 50°38' W 001°54'510.2
2019-Aug-19 07:30N 50°42' W 001°59'1 0.9
2019-Aug-19 06:55N 50°42' W 001°59'0 0.0
2019-Aug-19 06:25N 50°42' W 001°59'0 0.0
2019-Aug-19 05:57N 50°42' W 001°59'1 1.8
2019-Aug-19 05:30N 50°42' W 001°58'510.5
2019-Aug-19 05:01N 50°38' W 001°54'714.5
2019-Aug-19 04:30N 50°31' W 001°51'2112.7
2019-Aug-19 02:50N 50°10' W 001°44'412.4
2019-Aug-19 02:30N 50°06' W 001°43'712.6
2019-Aug-19 01:58N 49°59' W 001°41'613.1
2019-Aug-19 01:30N 49°53' W 001°39'612.4
2019-Aug-19 01:00N 49°48' W 001°35'510.5
2019-Aug-19 00:30N 49°43' W 001°33'1 1.8
2019-Aug-19 00:00N 49°43' W 001°34'1 2.0
2019-Aug-18 23:30N 49°43' W 001°36'1 2.7
2019-Aug-18 23:00N 49°43' W 001°38'2 3.1
2019-Aug-18 22:30N 49°43' W 001°40'2 3.3
2019-Aug-18 22:00N 49°43' W 001°43'2 3.0
2019-Aug-18 21:30N 49°43' W 001°45'1 1.5
2019-Aug-18 21:00N 49°43' W 001°44'3 6.4
2019-Aug-18 20:30N 49°41' W 001°40'3 6.2
2019-Aug-18 19:59N 49°39' W 001°37'0 0.0
2019-Aug-18 19:28N 49°39' W 001°37'0 0.0
2019-Aug-18 18:58N 49°39' W 001°37'0 0.0
2019-Aug-18 18:28N 49°39' W 001°37'0 0.0
2019-Aug-18 17:58N 49°39' W 001°37'3 7.0
2019-Aug-18 17:30N 49°41' W 001°40'816.0
2019-Aug-18 17:00N 49°49' W 001°42'815.8
2019-Aug-18 16:30N 49°57' W 001°45'815.4
2019-Aug-18 16:00N 50°04' W 001°49'816.0
2019-Aug-18 15:31N 50°12' W 001°50'1716.5
2019-Aug-18 14:28N 50°29' W 001°52'919.6
2019-Aug-18 14:00N 50°38' W 001°54'4 8.5
2019-Aug-18 13:30N 50°42' W 001°57'1 2.6
2019-Aug-18 12:59N 50°42' W 001°59'0 0.0
2019-Aug-18 12:29N 50°42' W 001°59'0 0.0
2019-Aug-18 11:59N 50°42' W 001°59'0 0.0
2019-Aug-18 11:29N 50°42' W 001°59'2 4.3
2019-Aug-18 11:00N 50°41' W 001°57'714.2
2019-Aug-18 10:30N 50°35' W 001°52'916.3
2019-Aug-18 09:57N 50°26' W 001°49'1415.7
2019-Aug-18 09:03N 50°12' W 001°44'215.6
2019-Aug-18 08:56N 50°10' W 001°44'715.6
2019-Aug-18 08:30N 50°04' W 001°41'816.3
2019-Aug-18 08:00N 49°56' W 001°41'1615.6
2019-Aug-18 07:01N 49°40' W 001°38'2 3.2
2019-Aug-18 06:29N 49°39' W 001°37'0 0.0
2019-Aug-18 06:00N 49°39' W 001°37'0 0.0
2019-Aug-18 05:30N 49°39' W 001°37'0 0.0
2019-Aug-18 05:00N 49°39' W 001°37'4 7.4
2019-Aug-18 04:31N 49°42' W 001°40'4 8.5
2019-Aug-18 04:01N 49°45' W 001°45'1 2.5
2019-Aug-18 03:30N 49°45' W 001°43'2 3.1
2019-Aug-18 03:01N 49°44' W 001°40'2 4.2
2019-Aug-18 02:31N 49°44' W 001°37'1 2.6
2019-Aug-18 02:01N 49°44' W 001°35'1 2.2
2019-Aug-18 01:31N 49°44' W 001°34'1 1.8
2019-Aug-18 01:01N 49°44' W 001°32'612.6
2019-Aug-18 00:30N 49°50' W 001°36'713.8
2019-Aug-18 00:01N 49°56' W 001°40'713.6
2019-Aug-17 23:30N 50°02' W 001°44'613.0
2019-Aug-17 23:01N 50°09' W 001°45'713.1
2019-Aug-17 22:30N 50°15' W 001°47'713.0
2019-Aug-17 21:56N 50°23' W 001°48'612.9
2019-Aug-17 21:28N 50°29' W 001°50'612.7
2019-Aug-17 21:01N 50°34' W 001°52'510.7
2019-Aug-17 20:31N 50°39' W 001°55'4 8.0
2019-Aug-17 20:00N 50°42' W 001°59'0 0.0
2019-Aug-17 19:30N 50°42' W 001°59'0 0.0
2019-Aug-17 19:00N 50°42' W 001°59'0 0.0
2019-Aug-17 18:30N 50°42' W 001°59'1212.4
2019-Aug-17 17:30N 50°31' W 001°52'3 5.9
2019-Aug-17 17:00N 50°34' W 001°52'1116.1
2019-Aug-17 16:21N 50°23' W 001°52'1016.6
2019-Aug-17 15:44N 50°13' W 001°49'416.1
2019-Aug-17 15:31N 50°10' W 001°49'815.5
2019-Aug-17 15:00N 50°02' W 001°49'816.4
2019-Aug-17 14:30N 49°54' W 001°46'917.3
2019-Aug-17 14:00N 49°46' W 001°41'714.7
2019-Aug-17 13:30N 49°39' W 001°37'0 0.7
2019-Aug-17 13:00N 49°39' W 001°37'0 0.0
2019-Aug-17 12:31N 49°39' W 001°37'0 0.0
2019-Aug-17 12:00N 49°39' W 001°37'0 0.0
2019-Aug-17 11:30N 49°39' W 001°37'0 0.0
2019-Aug-17 11:00N 49°39' W 001°37'0 0.0
2019-Aug-17 10:30N 49°39' W 001°37'0 0.0
2019-Aug-17 10:00N 49°39' W 001°37'0 0.0
2019-Aug-17 09:30N 49°39' W 001°37'0 0.0
2019-Aug-17 09:00N 49°39' W 001°37'0 0.0
2019-Aug-17 08:30N 49°39' W 001°37'0 0.0
2019-Aug-17 08:00N 49°39' W 001°37'0 0.0
2019-Aug-17 07:30N 49°39' W 001°37'0 0.0
2019-Aug-17 07:00N 49°39' W 001°37'0 0.0
2019-Aug-17 06:30N 49°39' W 001°37'0 0.0
2019-Aug-17 06:00N 49°39' W 001°37'0 0.0
2019-Aug-17 05:30N 49°39' W 001°37'0 0.0
2019-Aug-17 05:00N 49°39' W 001°37'4 8.2
2019-Aug-17 04:30N 49°42' W 001°40'2 4.2
2019-Aug-17 04:00N 49°44' W 001°38'1 1.2
2019-Aug-17 03:30N 49°44' W 001°38'1 2.0
2019-Aug-17 03:00N 49°44' W 001°36'2 3.2
2019-Aug-17 02:30N 49°42' W 001°36'1 1.1
2019-Aug-17 02:00N 49°42' W 001°35'0 0.9
2019-Aug-17 01:30N 49°43' W 001°35'1 1.3
2019-Aug-17 01:00N 49°43' W 001°34'714.0
2019-Aug-17 00:30N 49°49' W 001°39'815.1
2019-Aug-17 00:00N 49°56' W 001°45'714.4
2019-Aug-16 23:30N 50°03' W 001°47'714.2
2019-Aug-16 23:00N 50°10' W 001°47'1014.0
2019-Aug-16 22:16N 50°21' W 001°49'413.8
2019-Aug-16 21:57N 50°25' W 001°50'613.4
2019-Aug-16 21:30N 50°31' W 001°52'713.1
2019-Aug-16 21:00N 50°37' W 001°54'611.8
2019-Aug-16 20:31N 50°42' W 001°58'1 1.5
2019-Aug-16 19:58N 50°42' W 001°59'0 0.0
2019-Aug-16 19:28N 50°42' W 001°59'0 0.0
2019-Aug-16 18:55N 50°42' W 001°59'0 0.0
2019-Aug-16 18:30N 50°42' W 001°59'3 5.5
2019-Aug-16 18:00N 50°41' W 001°56'714.8
2019-Aug-16 17:31N 50°34' W 001°51'815.8
2019-Aug-16 17:00N 50°26' W 001°48'915.9
2019-Aug-16 16:26N 50°17' W 001°47'716.1
2019-Aug-16 16:00N 50°10' W 001°46'815.7
2019-Aug-16 15:31N 50°02' W 001°45'815.8
2019-Aug-16 15:00N 49°55' W 001°44'816.3
2019-Aug-16 14:31N 49°47' W 001°41'714.4
2019-Aug-16 14:00N 49°40' W 001°37'1 2.2
2019-Aug-16 13:30N 49°39' W 001°37'0 0.0
2019-Aug-16 12:59N 49°39' W 001°37'0 0.0
2019-Aug-16 12:29N 49°39' W 001°37'0 0.9
2019-Aug-16 12:01N 49°39' W 001°37'714.1
2019-Aug-16 11:30N 49°46' W 001°35'815.7
2019-Aug-16 11:00N 49°54' W 001°36'815.5
2019-Aug-16 10:30N 50°02' W 001°38'816.2
2019-Aug-16 10:00N 50°09' W 001°44'815.7
2019-Aug-16 09:30N 50°16' W 001°47'915.5
2019-Aug-16 08:56N 50°25' W 001°49'715.1
2019-Aug-16 08:31N 50°31' W 001°51'714.4
2019-Aug-16 08:01N 50°38' W 001°54'510.1
2019-Aug-16 07:31N 50°42' W 001°59'0 0.2
2019-Aug-16 06:58N 50°42' W 001°59'0 0.0
2019-Aug-16 06:28N 50°42' W 001°59'0 0.0
2019-Aug-16 06:00N 50°42' W 001°59'0 0.9
2019-Aug-16 05:30N 50°42' W 001°59'510.6
2019-Aug-16 05:01N 50°38' W 001°54'611.7
2019-Aug-16 04:30N 50°32' W 001°53'1013.0
2019-Aug-16 03:44N 50°23' W 001°48'313.5
2019-Aug-16 03:30N 50°19' W 001°47'713.7
2019-Aug-16 03:00N 50°13' W 001°45'913.8
2019-Aug-16 02:20N 50°04' W 001°41'813.7
2019-Aug-16 01:43N 49°56' W 001°37'12 4.2
2019-Aug-15 22:45N 49°44' W 001°33'5 0.9
2019-Aug-15 17:30N 49°40' W 001°37'714.1
2019-Aug-15 16:59N 49°47' W 001°40'1615.6
2019-Aug-15 15:59N 50°02' W 001°44'2715.2
2019-Aug-15 14:12N 50°29' W 001°50'315.6
2019-Aug-15 14:00N 50°32' W 001°51'816.0
2019-Aug-15 13:30N 50°40' W 001°55'4 7.6
2019-Aug-15 13:00N 50°42' W 001°59'0 0.0
2019-Aug-15 12:30N 50°42' W 001°59'0 0.0
2019-Aug-15 12:00N 50°42' W 001°59'0 0.7
2019-Aug-15 11:30N 50°42' W 001°59'510.1
2019-Aug-15 11:01N 50°38' W 001°54'815.3
2019-Aug-15 10:31N 50°31' W 001°52'815.2
2019-Aug-15 09:58N 50°23' W 001°50'1514.8
2019-Aug-15 08:59N 50°08' W 001°46'814.6
2019-Aug-15 08:27N 50°01' W 001°44'614.4
2019-Aug-15 08:01N 49°54' W 001°42'714.1
2019-Aug-15 07:30N 49°47' W 001°41'714.2
2019-Aug-15 07:00N 49°40' W 001°39'3 0.8
2019-Aug-15 03:38N 49°43' W 001°39'37 8.1
2019-Aug-14 23:05N 50°20' W 001°44'112.7
2019-Aug-14 23:00N 50°21' W 001°45'612.7
2019-Aug-14 22:30N 50°27' W 001°48'611.7
2019-Aug-14 22:00N 50°32' W 001°51'5 9.9
2019-Aug-14 21:30N 50°37' W 001°53'510.9
2019-Aug-14 21:00N 50°42' W 001°57'2 2.8
2019-Aug-14 20:25N 50°42' W 001°59'0 0.0
2019-Aug-14 19:56N 50°42' W 001°59'0 0.0
2019-Aug-14 19:30N 50°42' W 001°59'0 0.1
2019-Aug-14 19:01N 50°42' W 001°59'3 5.9
2019-Aug-14 18:30N 50°40' W 001°56'815.2
2019-Aug-14 18:00N 50°34' W 001°51'814.9
2019-Aug-14 17:29N 50°26' W 001°47'815.8
2019-Aug-14 17:00N 50°18' W 001°47'815.9
2019-Aug-14 16:30N 50°10' W 001°47'815.9
2019-Aug-14 15:59N 50°02' W 001°46'1715.9
2019-Aug-14 14:53N 49°45' W 001°41'713.9
2019-Aug-14 14:24N 49°39' W 001°37'1 0.3
2019-Aug-14 12:10N 49°40' W 001°37'212.4
2019-Aug-14 12:00N 49°41' W 001°39'714.7
2019-Aug-14 11:31N 49°48' W 001°42'1515.1
2019-Aug-14 10:30N 50°03' W 001°45'915.3
2019-Aug-14 09:54N 50°12' W 001°47'915.4
2019-Aug-14 09:19N 50°21' W 001°49'615.4
2019-Aug-14 08:56N 50°27' W 001°50'715.3
2019-Aug-14 08:30N 50°33' W 001°52'714.6
2019-Aug-14 08:00N 50°40' W 001°56'3 6.3
2019-Aug-14 07:28N 50°42' W 001°59'0 0.0
2019-Aug-14 06:58N 50°42' W 001°59'0 0.0
2019-Aug-14 06:30N 50°42' W 001°59'0 0.0
2019-Aug-14 06:00N 50°42' W 001°59'0 0.1
2019-Aug-14 05:30N 50°42' W 001°60'4 8.9
2019-Aug-14 05:00N 50°39' W 001°55'612.0
2019-Aug-14 04:30N 50°34' W 001°50'712.8
2019-Aug-14 04:00N 50°28' W 001°47'4012.9
2019-Aug-14 00:54N 49°48' W 001°40'3 2.9
2019-Aug-13 23:46N 49°46' W 001°36'1 1.5
2019-Aug-13 22:51N 49°46' W 001°34'0 1.0
2019-Aug-13 22:30N 49°46' W 001°33'0 0.9
2019-Aug-13 21:58N 49°46' W 001°33'1 1.4
2019-Aug-13 21:30N 49°45' W 001°33'510.1
2019-Aug-13 21:00N 49°40' W 001°36'2 3.0
2019-Aug-13 20:28N 49°39' W 001°37'0 0.0
2019-Aug-13 19:59N 49°39' W 001°37'0 0.0
2019-Aug-13 19:30N 49°39' W 001°37'0 0.0
2019-Aug-13 19:00N 49°39' W 001°37'0 0.0
2019-Aug-13 18:13N 49°39' W 001°37'0 0.0
2019-Aug-13 18:00N 49°39' W 001°37'0 0.0
2019-Aug-13 17:30N 49°39' W 001°37'4 7.5
2019-Aug-13 17:00N 49°43' W 001°35'815.6
2019-Aug-13 16:30N 49°50' W 001°39'816.5
2019-Aug-13 16:00N 49°58' W 001°43'916.0
2019-Aug-13 15:28N 50°06' W 001°46'2515.7
2019-Aug-13 13:53N 50°31' W 001°51'616.3
2019-Aug-13 13:31N 50°37' W 001°54'612.6
2019-Aug-13 13:01N 50°42' W 001°58'1 1.6
2019-Aug-13 12:30N 50°42' W 001°59'0 0.0
2019-Aug-13 12:00N 50°42' W 001°59'0 0.0
2019-Aug-13 11:30N 50°42' W 001°59'2 4.6
2019-Aug-13 11:00N 50°41' W 001°57'713.8
2019-Aug-13 10:31N 50°35' W 001°53'815.9
2019-Aug-13 10:00N 50°26' W 001°51'3115.9
2019-Aug-13 08:01N 49°55' W 001°44'015.2
2019-Aug-13 08:01N 49°55' W 001°44'815.2
2019-Aug-13 07:31N 49°48' W 001°41'913.8
2019-Aug-13 06:51N 49°39' W 001°37'6 1.5
2019-Aug-13 02:55N 49°43' W 001°43'0 1.2
2019-Aug-13 02:30N 49°44' W 001°44'2 2.0
2019-Aug-13 01:25N 49°46' W 001°45'612.0
2019-Aug-13 00:55N 49°52' W 001°47'3613.3
2019-Aug-12 22:13N 50°27' W 001°51'313.6
2019-Aug-12 22:00N 50°30' W 001°51'611.5
2019-Aug-12 21:30N 50°36' W 001°53'611.8
2019-Aug-12 21:01N 50°41' W 001°57'2 3.6
2019-Aug-12 20:29N 50°42' W 001°59'0 0.0
2019-Aug-12 19:59N 50°42' W 001°59'0 0.0
2019-Aug-12 19:29N 50°42' W 001°59'0 0.0
2019-Aug-12 19:00N 50°42' W 001°59'2 3.3
2019-Aug-12 18:30N 50°42' W 001°57'611.6
2019-Aug-12 18:00N 50°37' W 001°53'815.3
2019-Aug-12 17:29N 50°29' W 001°50'715.5
2019-Aug-12 17:00N 50°21' W 001°49'3315.5
2019-Aug-12 14:54N 49°49' W 001°41'915.2
2019-Aug-12 14:19N 49°41' W 001°39'2 0.7
2019-Aug-12 11:55N 49°40' W 001°37'1514.5
2019-Aug-12 10:54N 49°54' W 001°45'3516.3
2019-Aug-12 08:43N 50°29' W 001°51'416.5
2019-Aug-12 08:30N 50°32' W 001°52'816.0
2019-Aug-12 08:00N 50°40' W 001°56'  

Dump ship's entire track history